sensor_id;sensor_type;location;lat;lon;timestamp;pressure;altitude;pressure_sealevel;temperature;humidity
64835;BME280;51293;59.296;18.006;2022-08-21T00:01:57;100769.28;;;17.36;69.94
64835;BME280;51293;59.296;18.006;2022-08-21T00:04:23;100759.13;;;17.37;70.43
64835;BME280;51293;59.296;18.006;2022-08-21T00:06:50;100775.03;;;17.35;70.17
64835;BME280;51293;59.296;18.006;2022-08-21T00:09:16;100772.28;;;17.35;70.48
64835;BME280;51293;59.296;18.006;2022-08-21T00:11:43;100761.63;;;17.33;70.68
64835;BME280;51293;59.296;18.006;2022-08-21T00:14:09;100768.19;;;17.27;70.82
64835;BME280;51293;59.296;18.006;2022-08-21T00:16:35;100763.25;;;17.29;70.85
64835;BME280;51293;59.296;18.006;2022-08-21T00:19:00;100760.78;;;17.28;70.48
64835;BME280;51293;59.296;18.006;2022-08-21T00:21:26;100761.91;;;17.22;70.70
64835;BME280;51293;59.296;18.006;2022-08-21T00:23:52;100755.03;;;17.29;70.32
64835;BME280;51293;59.296;18.006;2022-08-21T00:26:17;100751.75;;;17.27;71.01
64835;BME280;51293;59.296;18.006;2022-08-21T00:28:42;100755.31;;;17.28;70.93
64835;BME280;51293;59.296;18.006;2022-08-21T00:31:11;100752.56;;;17.28;70.89
64835;BME280;51293;59.296;18.006;2022-08-21T00:33:36;100751.22;;;17.25;70.61
64835;BME280;51293;59.296;18.006;2022-08-21T00:36:02;100758.06;;;17.23;70.90
64835;BME280;51293;59.296;18.006;2022-08-21T00:38:28;100750.41;;;17.25;70.73
64835;BME280;51293;59.296;18.006;2022-08-21T00:41:00;100755.03;;;17.19;71.08
64835;BME280;51293;59.296;18.006;2022-08-21T00:43:30;100764.34;;;17.18;71.34
64835;BME280;51293;59.296;18.006;2022-08-21T00:45:57;100762.72;;;17.17;71.46
64835;BME280;51293;59.296;18.006;2022-08-21T00:48:23;100768.75;;;17.14;72.15
64835;BME280;51293;59.296;18.006;2022-08-21T00:51:24;100773.66;;;17.17;72.23
64835;BME280;51293;59.296;18.006;2022-08-21T00:53:56;100770.38;;;17.15;72.41
64835;BME280;51293;59.296;18.006;2022-08-21T00:56:25;100760.25;;;17.10;72.44
64835;BME280;51293;59.296;18.006;2022-08-21T00:58:51;100763.81;;;17.06;73.04
64835;BME280;51293;59.296;18.006;2022-08-21T01:01:17;100775.28;;;17.03;73.43
64835;BME280;51293;59.296;18.006;2022-08-21T01:03:43;100761.59;;;17.03;73.67
64835;BME280;51293;59.296;18.006;2022-08-21T01:06:08;100765.72;;;17.00;73.80
64835;BME280;51293;59.296;18.006;2022-08-21T01:08:34;100761.88;;;17.01;74.21
64835;BME280;51293;59.296;18.006;2022-08-21T01:11:01;100764.34;;;17.03;74.46
64835;BME280;51293;59.296;18.006;2022-08-21T01:13:29;100762.44;;;16.98;74.14
64835;BME280;51293;59.296;18.006;2022-08-21T01:15:58;100756.41;;;17.01;73.98
64835;BME280;51293;59.296;18.006;2022-08-21T01:18:26;100752.84;;;17.01;74.22
64835;BME280;51293;59.296;18.006;2022-08-21T01:21:28;100758.03;;;16.92;74.16
64835;BME280;51293;59.296;18.006;2022-08-21T01:23:55;100747.13;;;16.97;74.48
64835;BME280;51293;59.296;18.006;2022-08-21T01:26:24;100744.09;;;16.99;74.55
64835;BME280;51293;59.296;18.006;2022-08-21T01:29:11;100729.59;;;16.93;74.54
64835;BME280;51293;59.296;18.006;2022-08-21T01:31:38;100741.66;;;16.97;74.69
64835;BME280;51293;59.296;18.006;2022-08-21T01:34:04;100735.06;;;16.93;74.57
64835;BME280;51293;59.296;18.006;2022-08-21T01:36:29;100736.44;;;16.91;74.96
64835;BME280;51293;59.296;18.006;2022-08-21T01:38:56;100734.81;;;16.90;74.78
64835;BME280;51293;59.296;18.006;2022-08-21T01:41:21;100740.25;;;16.84;75.26
64835;BME280;51293;59.296;18.006;2022-08-21T01:43:47;100749.56;;;16.83;75.57
64835;BME280;51293;59.296;18.006;2022-08-21T01:46:13;100750.09;;;16.85;75.60
64835;BME280;51293;59.296;18.006;2022-08-21T01:48:39;100751.75;;;16.81;76.24
64835;BME280;51293;59.296;18.006;2022-08-21T01:51:05;100755.81;;;16.79;75.92
64835;BME280;51293;59.296;18.006;2022-08-21T01:53:31;100758.84;;;16.77;75.94
64835;BME280;51293;59.296;18.006;2022-08-21T01:55:59;100761.31;;;16.79;76.28
64835;BME280;51293;59.296;18.006;2022-08-21T01:58:25;100755.56;;;16.75;76.28
64835;BME280;51293;59.296;18.006;2022-08-21T02:00:50;100761.84;;;16.71;76.81
64835;BME280;51293;59.296;18.006;2022-08-21T02:03:16;100760.44;;;16.68;76.94
64835;BME280;51293;59.296;18.006;2022-08-21T02:05:41;100751.69;;;16.66;76.84
64835;BME280;51293;59.296;18.006;2022-08-21T02:08:06;100757.97;;;16.67;77.86
64835;BME280;51293;59.296;18.006;2022-08-21T02:10:33;100755.25;;;16.67;77.32
64835;BME280;51293;59.296;18.006;2022-08-21T02:13:00;100753.88;;;16.64;77.46
64835;BME280;51293;59.296;18.006;2022-08-21T02:15:27;100754.41;;;16.61;77.55
64835;BME280;51293;59.296;18.006;2022-08-21T02:17:59;100750.03;;;16.60;77.68
64835;BME280;51293;59.296;18.006;2022-08-21T02:20:38;100747.84;;;16.57;77.84
64835;BME280;51293;59.296;18.006;2022-08-21T02:23:05;100750.84;;;16.55;78.02
64835;BME280;51293;59.296;18.006;2022-08-21T02:25:31;100743.75;;;16.65;78.15
64835;BME280;51293;59.296;18.006;2022-08-21T02:27:58;100746.19;;;16.61;78.03
64835;BME280;51293;59.296;18.006;2022-08-21T02:30:29;100745.41;;;16.66;78.30
64835;BME280;51293;59.296;18.006;2022-08-21T02:32:55;100743.47;;;16.66;77.78
64835;BME280;51293;59.296;18.006;2022-08-21T02:35:21;100747.84;;;16.62;78.10
64835;BME280;51293;59.296;18.006;2022-08-21T02:37:59;100754.94;;;16.63;78.37
64835;BME280;51293;59.296;18.006;2022-08-21T02:40:28;100747.59;;;16.64;78.10
64835;BME280;51293;59.296;18.006;2022-08-21T02:42:56;100740.19;;;16.59;78.33
64835;BME280;51293;59.296;18.006;2022-08-21T02:45:21;100733.63;;;16.55;78.41
64835;BME280;51293;59.296;18.006;2022-08-21T02:48:04;100747.56;;;16.58;79.36
64835;BME280;51293;59.296;18.006;2022-08-21T02:50:44;100743.47;;;16.56;79.07
64835;BME280;51293;59.296;18.006;2022-08-21T02:53:12;100740.47;;;16.57;78.58
64835;BME280;51293;59.296;18.006;2022-08-21T02:55:46;100746.44;;;16.54;78.93
64835;BME280;51293;59.296;18.006;2022-08-21T02:58:14;100737.44;;;16.54;79.49
64835;BME280;51293;59.296;18.006;2022-08-21T03:00:41;100736.06;;;16.51;79.16
64835;BME280;51293;59.296;18.006;2022-08-21T03:03:06;100732.78;;;16.49;79.38
64835;BME280;51293;59.296;18.006;2022-08-21T03:05:34;100735.25;;;16.51;79.67
64835;BME280;51293;59.296;18.006;2022-08-21T03:08:01;100731.13;;;16.53;79.13
64835;BME280;51293;59.296;18.006;2022-08-21T03:10:28;100730.88;;;16.50;79.50
64835;BME280;51293;59.296;18.006;2022-08-21T03:12:54;100726.78;;;16.47;79.71
64835;BME280;51293;59.296;18.006;2022-08-21T03:15:22;100734.16;;;16.47;79.79
64835;BME280;51293;59.296;18.006;2022-08-21T03:17:51;100737.41;;;16.44;80.09
64835;BME280;51293;59.296;18.006;2022-08-21T03:20:19;100739.63;;;16.47;80.29
64835;BME280;51293;59.296;18.006;2022-08-21T03:22:47;100739.63;;;16.47;80.10
64835;BME280;51293;59.296;18.006;2022-08-21T03:25:13;100743.41;;;16.46;80.67
64835;BME280;51293;59.296;18.006;2022-08-21T03:27:38;100743.41;;;16.46;80.60
64835;BME280;51293;59.296;18.006;2022-08-21T03:30:06;100743.16;;;16.42;80.82
64835;BME280;51293;59.296;18.006;2022-08-21T03:32:32;100737.13;;;16.40;80.69
64835;BME280;51293;59.296;18.006;2022-08-21T03:34:58;100733.03;;;16.43;81.10
64835;BME280;51293;59.296;18.006;2022-08-21T03:37:24;100745.59;;;16.44;80.75
64835;BME280;51293;59.296;18.006;2022-08-21T03:39:50;100740.13;;;16.44;81.17
64835;BME280;51293;59.296;18.006;2022-08-21T03:42:16;100742.06;;;16.43;81.01
64835;BME280;51293;59.296;18.006;2022-08-21T03:44:41;100735.50;;;16.44;80.96
64835;BME280;51293;59.296;18.006;2022-08-21T03:47:07;100749.97;;;16.45;81.21
64835;BME280;51293;59.296;18.006;2022-08-21T03:49:32;100747.81;;;16.47;81.47
64835;BME280;51293;59.296;18.006;2022-08-21T03:51:58;100753.00;;;16.43;81.56
64835;BME280;51293;59.296;18.006;2022-08-21T03:54:24;100763.38;;;16.46;81.50
64835;BME280;51293;59.296;18.006;2022-08-21T03:56:50;100749.47;;;16.48;81.43
64835;BME280;51293;59.296;18.006;2022-08-21T03:59:15;100751.09;;;16.49;81.49
64835;BME280;51293;59.296;18.006;2022-08-21T04:01:51;100750.56;;;16.52;81.46
64835;BME280;51293;59.296;18.006;2022-08-21T04:04:17;100758.47;;;16.53;81.42
64835;BME280;51293;59.296;18.006;2022-08-21T04:06:42;100754.66;;;16.54;80.95
64835;BME280;51293;59.296;18.006;2022-08-21T04:09:07;100753.28;;;16.52;81.33
64835;BME280;51293;59.296;18.006;2022-08-21T04:11:33;100755.22;;;16.56;81.08
64835;BME280;51293;59.296;18.006;2022-08-21T04:13:58;100757.13;;;16.51;81.21
64835;BME280;51293;59.296;18.006;2022-08-21T04:16:24;100764.53;;;16.55;81.19
64835;BME280;51293;59.296;18.006;2022-08-21T04:18:49;100770.81;;;16.56;80.91
64835;BME280;51293;59.296;18.006;2022-08-21T04:21:14;100757.13;;;16.56;81.64
64835;BME280;51293;59.296;18.006;2022-08-21T04:23:40;100762.59;;;16.61;81.17
64835;BME280;51293;59.296;18.006;2022-08-21T04:26:06;100768.31;;;16.54;80.67
64835;BME280;51293;59.296;18.006;2022-08-21T04:28:31;100773.81;;;16.60;80.89
64835;BME280;51293;59.296;18.006;2022-08-21T04:30:57;100766.16;;;16.56;80.78
64835;BME280;51293;59.296;18.006;2022-08-21T04:33:22;100762.03;;;16.54;80.92
64835;BME280;51293;59.296;18.006;2022-08-21T04:35:49;100762.03;;;16.54;81.52
64835;BME280;51293;59.296;18.006;2022-08-21T04:38:15;100761.78;;;16.55;81.58
64835;BME280;51293;59.296;18.006;2022-08-21T04:40:41;100768.06;;;16.61;81.50
64835;BME280;51293;59.296;18.006;2022-08-21T04:43:08;100764.25;;;16.62;81.23
64835;BME280;51293;59.296;18.006;2022-08-21T04:45:37;100761.53;;;16.67;80.96
64835;BME280;51293;59.296;18.006;2022-08-21T04:48:05;100755.53;;;16.65;81.07
64835;BME280;51293;59.296;18.006;2022-08-21T04:52:56;100748.38;;;16.59;81.61
64835;BME280;51293;59.296;18.006;2022-08-21T04:55:23;100736.34;;;16.60;81.53
64835;BME280;51293;59.296;18.006;2022-08-21T04:57:50;100741.28;;;16.63;81.71
64835;BME280;51293;59.296;18.006;2022-08-21T05:00:19;100741.84;;;16.65;81.90
64835;BME280;51293;59.296;18.006;2022-08-21T05:02:44;100739.38;;;16.64;81.04
64835;BME280;51293;59.296;18.006;2022-08-21T05:05:12;100747.28;;;16.60;81.14
64835;BME280;51293;59.296;18.006;2022-08-21T05:07:37;100747.53;;;16.53;81.67
64835;BME280;51293;59.296;18.006;2022-08-21T05:10:03;100747.53;;;16.53;81.44
64835;BME280;51293;59.296;18.006;2022-08-21T05:12:31;100746.19;;;16.51;81.69
64835;BME280;51293;59.296;18.006;2022-08-21T05:14:57;100744.00;;;16.48;81.75
64835;BME280;51293;59.296;18.006;2022-08-21T05:17:22;100741.25;;;16.48;81.88
64835;BME280;51293;59.296;18.006;2022-08-21T05:19:48;100746.72;;;16.48;82.39
64835;BME280;51293;59.296;18.006;2022-08-21T05:22:20;100747.81;;;16.52;82.62
64835;BME280;51293;59.296;18.006;2022-08-21T05:24:45;100744.00;;;16.48;83.08
64835;BME280;51293;59.296;18.006;2022-08-21T05:27:11;100737.19;;;16.55;82.20
64835;BME280;51293;59.296;18.006;2022-08-21T05:29:36;100738.53;;;16.48;82.79
64835;BME280;51293;59.296;18.006;2022-08-21T05:32:08;100739.06;;;16.50;83.01
64835;BME280;51293;59.296;18.006;2022-08-21T05:34:34;100731.97;;;16.49;83.05
64835;BME280;51293;59.296;18.006;2022-08-21T05:36:59;100726.47;;;16.44;83.41
64835;BME280;51293;59.296;18.006;2022-08-21T05:39:25;100728.94;;;16.45;83.57
64835;BME280;51293;59.296;18.006;2022-08-21T05:41:51;100743.44;;;16.51;83.62
64835;BME280;51293;59.296;18.006;2022-08-21T05:44:16;100733.31;;;16.46;83.73
64835;BME280;51293;59.296;18.006;2022-08-21T05:46:41;100736.91;;;16.57;83.48
64835;BME280;51293;59.296;18.006;2022-08-21T05:49:07;100737.19;;;16.55;83.58
64835;BME280;51293;59.296;18.006;2022-08-21T05:51:33;100737.44;;;16.59;83.17
64835;BME280;51293;59.296;18.006;2022-08-21T05:53:58;100734.69;;;16.54;83.14
64835;BME280;51293;59.296;18.006;2022-08-21T05:56:23;100730.03;;;16.44;83.79
64835;BME280;51293;59.296;18.006;2022-08-21T05:58:49;100724.03;;;16.47;83.55
64835;BME280;51293;59.296;18.006;2022-08-21T06:01:14;100722.66;;;16.50;83.45
64835;BME280;51293;59.296;18.006;2022-08-21T06:03:41;100725.44;;;16.55;83.34
64835;BME280;51293;59.296;18.006;2022-08-21T06:06:07;100725.94;;;16.52;83.71
64835;BME280;51293;59.296;18.006;2022-08-21T06:08:33;100724.31;;;16.61;83.93
64835;BME280;51293;59.296;18.006;2022-08-21T06:11:00;100713.94;;;16.68;83.19
64835;BME280;51293;59.296;18.006;2022-08-21T06:13:26;100722.69;;;16.65;83.00
64835;BME280;51293;59.296;18.006;2022-08-21T06:16:14;100718.06;;;16.71;82.62
64835;BME280;51293;59.296;18.006;2022-08-21T06:18:41;100720.81;;;16.76;82.43
64835;BME280;51293;59.296;18.006;2022-08-21T06:21:07;100713.38;;;16.61;83.33
64835;BME280;51293;59.296;18.006;2022-08-21T06:23:33;100710.66;;;16.66;83.33
64835;BME280;51293;59.296;18.006;2022-08-21T06:26:00;100704.09;;;16.67;83.61
64835;BME280;51293;59.296;18.006;2022-08-21T06:28:26;100712.91;;;16.74;83.23
64835;BME280;51293;59.296;18.006;2022-08-21T06:30:52;100711.47;;;16.67;83.84
64835;BME280;51293;59.296;18.006;2022-08-21T06:33:17;100709.06;;;16.75;83.57
64835;BME280;51293;59.296;18.006;2022-08-21T06:35:43;100708.50;;;16.78;83.45
64835;BME280;51293;59.296;18.006;2022-08-21T06:38:09;100716.47;;;16.80;83.44
64835;BME280;51293;59.296;18.006;2022-08-21T06:40:34;100715.63;;;16.79;83.53
64835;BME280;51293;59.296;18.006;2022-08-21T06:43:10;100715.63;;;16.79;83.03
64835;BME280;51293;59.296;18.006;2022-08-21T06:45:35;100723.59;;;16.91;82.82
64835;BME280;51293;59.296;18.006;2022-08-21T06:48:01;100717.81;;;16.88;82.49
64835;BME280;51293;59.296;18.006;2022-08-21T06:50:27;100711.81;;;16.96;82.24
64835;BME280;51293;59.296;18.006;2022-08-21T06:53:11;100711.25;;;16.94;81.78
64835;BME280;51293;59.296;18.006;2022-08-21T06:55:37;100717.56;;;16.99;81.88
64835;BME280;51293;59.296;18.006;2022-08-21T06:58:04;100711.53;;;16.92;81.40
64835;BME280;51293;59.296;18.006;2022-08-21T07:00:30;100712.91;;;16.90;81.89
64835;BME280;51293;59.296;18.006;2022-08-21T07:02:57;100715.34;;;16.96;81.15
64835;BME280;51293;59.296;18.006;2022-08-21T07:05:25;100710.19;;;17.00;81.04
64835;BME280;51293;59.296;18.006;2022-08-21T07:07:51;100714.53;;;17.11;80.84
64835;BME280;51293;59.296;18.006;2022-08-21T07:10:17;100707.44;;;17.15;80.27
64835;BME280;51293;59.296;18.006;2022-08-21T07:12:42;100706.88;;;17.23;80.65
64835;BME280;51293;59.296;18.006;2022-08-21T07:15:08;100707.13;;;17.37;80.37
64835;BME280;51293;59.296;18.006;2022-08-21T07:17:33;100701.94;;;17.40;79.37
64835;BME280;51293;59.296;18.006;2022-08-21T07:19:59;100705.75;;;17.45;79.29
64835;BME280;51293;59.296;18.006;2022-08-21T07:22:25;100700.81;;;17.52;79.19
64835;BME280;51293;59.296;18.006;2022-08-21T07:24:52;100707.94;;;17.48;79.08
64835;BME280;51293;59.296;18.006;2022-08-21T07:27:18;100714.78;;;17.45;79.23
64835;BME280;51293;59.296;18.006;2022-08-21T07:29:43;100703.00;;;17.50;79.71
64835;BME280;51293;59.296;18.006;2022-08-21T07:32:08;100699.97;;;17.51;79.66
64835;BME280;51293;59.296;18.006;2022-08-21T07:34:34;100698.34;;;17.55;79.27
64835;BME280;51293;59.296;18.006;2022-08-21T07:36:59;100704.34;;;17.52;79.30
64835;BME280;51293;59.296;18.006;2022-08-21T07:39:24;100703.53;;;17.57;78.83
64835;BME280;51293;59.296;18.006;2022-08-21T07:41:50;100706.81;;;17.54;78.90
64835;BME280;51293;59.296;18.006;2022-08-21T07:44:16;100707.09;;;17.52;78.20
64835;BME280;51293;59.296;18.006;2022-08-21T07:46:41;100711.47;;;17.53;78.01
64835;BME280;51293;59.296;18.006;2022-08-21T07:49:07;100699.44;;;17.44;78.36
64835;BME280;51293;59.296;18.006;2022-08-21T07:51:32;100711.75;;;17.52;77.99
64835;BME280;51293;59.296;18.006;2022-08-21T07:53:59;100708.19;;;17.51;78.03
64835;BME280;51293;59.296;18.006;2022-08-21T07:56:26;100709.31;;;17.55;77.63
64835;BME280;51293;59.296;18.006;2022-08-21T07:58:52;100704.59;;;17.61;77.68
64835;BME280;51293;59.296;18.006;2022-08-21T08:01:18;100701.03;;;17.71;77.60
64835;BME280;51293;59.296;18.006;2022-08-21T08:03:43;100696.91;;;17.83;76.78
64835;BME280;51293;59.296;18.006;2022-08-21T08:06:10;100701.56;;;17.88;76.89
64835;BME280;51293;59.296;18.006;2022-08-21T08:08:38;100700.34;;;18.09;75.91
64835;BME280;51293;59.296;18.006;2022-08-21T08:11:04;100698.97;;;18.12;75.75
64835;BME280;51293;59.296;18.006;2022-08-21T08:13:30;100692.91;;;18.20;75.66
64835;BME280;51293;59.296;18.006;2022-08-21T08:15:55;100692.56;;;18.32;75.50
64835;BME280;51293;59.296;18.006;2022-08-21T08:18:21;100686.22;;;18.41;74.80
64835;BME280;51293;59.296;18.006;2022-08-21T08:20:46;100691.69;;;18.41;75.24
64835;BME280;51293;59.296;18.006;2022-08-21T08:23:15;100692.22;;;18.43;75.21
64835;BME280;51293;59.296;18.006;2022-08-21T08:25:41;100678.19;;;18.50;75.30
64835;BME280;51293;59.296;18.006;2022-08-21T08:28:06;100682.22;;;18.68;74.81
64835;BME280;51293;59.296;18.006;2022-08-21T08:30:32;100678.34;;;18.74;74.16
64835;BME280;51293;59.296;18.006;2022-08-21T08:32:58;100678.75;;;18.91;74.13
64835;BME280;51293;59.296;18.006;2022-08-21T08:35:25;100681.84;;;19.14;72.33
64835;BME280;51293;59.296;18.006;2022-08-21T08:37:51;100678.03;;;19.39;71.39
64835;BME280;51293;59.296;18.006;2022-08-21T08:40:39;100685.44;;;19.67;70.85
64835;BME280;51293;59.296;18.006;2022-08-21T08:43:07;100689.00;;;19.68;69.96
64835;BME280;51293;59.296;18.006;2022-08-21T08:45:36;100690.88;;;19.96;68.84
64835;BME280;51293;59.296;18.006;2022-08-21T08:48:06;100696.59;;;20.18;68.04
64835;BME280;51293;59.296;18.006;2022-08-21T08:50:53;100702.97;;;20.19;67.95
64835;BME280;51293;59.296;18.006;2022-08-21T08:53:32;100699.75;;;20.31;67.01
64835;BME280;51293;59.296;18.006;2022-08-21T08:56:00;100704.81;;;20.42;66.18
64835;BME280;51293;59.296;18.006;2022-08-21T08:58:37;100707.06;;;20.78;65.62
64835;BME280;51293;59.296;18.006;2022-08-21T09:01:08;100699.75;;;20.31;65.63
64835;BME280;51293;59.296;18.006;2022-08-21T09:03:36;100699.06;;;20.63;65.52
64835;BME280;51293;59.296;18.006;2022-08-21T09:09:14;100703.34;;;20.88;63.58
64835;BME280;51293;59.296;18.006;2022-08-21T09:14:31;100692.47;;;20.96;62.90
64835;BME280;51293;59.296;18.006;2022-08-21T09:17:13;100697.31;;;20.86;63.80
64835;BME280;51293;59.296;18.006;2022-08-21T09:19:46;100699.94;;;20.77;64.20
64835;BME280;51293;59.296;18.006;2022-08-21T09:22:45;100700.00;;;20.72;64.39
64835;BME280;51293;59.296;18.006;2022-08-21T09:25:26;100710.31;;;20.42;65.47
64835;BME280;51293;59.296;18.006;2022-08-21T09:27:52;100701.25;;;20.42;66.04
64835;BME280;51293;59.296;18.006;2022-08-21T09:30:24;100699.00;;;20.25;65.80
64835;BME280;51293;59.296;18.006;2022-08-21T09:32:50;100700.63;;;20.26;65.24
64835;BME280;51293;59.296;18.006;2022-08-21T09:35:20;100703.69;;;20.25;65.09
64835;BME280;51293;59.296;18.006;2022-08-21T09:40:33;100715.97;;;19.89;65.22
64835;BME280;51293;59.296;18.006;2022-08-21T09:45:42;100702.97;;;19.95;65.02
64835;BME280;51293;59.296;18.006;2022-08-21T09:48:19;100701.91;;;19.91;65.87
64835;BME280;51293;59.296;18.006;2022-08-21T09:50:46;100694.94;;;19.99;66.09
64835;BME280;51293;59.296;18.006;2022-08-21T09:53:24;100706.44;;;19.82;65.54
64835;BME280;51293;59.296;18.006;2022-08-21T09:55:58;100700.72;;;19.78;65.57
64835;BME280;51293;59.296;18.006;2022-08-21T09:58:46;100700.41;;;19.80;65.81
64835;BME280;51293;59.296;18.006;2022-08-21T10:01:21;100703.28;;;19.70;65.65
64835;BME280;51293;59.296;18.006;2022-08-21T10:03:47;100701.41;;;19.65;66.19
64835;BME280;51293;59.296;18.006;2022-08-21T10:06:28;100709.47;;;19.80;66.05
64835;BME280;51293;59.296;18.006;2022-08-21T10:09:11;100702.16;;;19.71;65.99
64835;BME280;51293;59.296;18.006;2022-08-21T10:11:37;100706.91;;;19.89;66.16
64835;BME280;51293;59.296;18.006;2022-08-21T10:17:32;100706.75;;;19.99;64.73
64835;BME280;51293;59.296;18.006;2022-08-21T10:20:09;100711.22;;;19.95;64.62
64835;BME280;51293;59.296;18.006;2022-08-21T10:36:21;100698.50;;;20.42;62.21
64835;BME280;51293;59.296;18.006;2022-08-21T10:47:55;100693.66;;;20.34;62.28
64835;BME280;51293;59.296;18.006;2022-08-21T10:50:30;100690.84;;;20.20;62.55
64835;BME280;51293;59.296;18.006;2022-08-21T10:55:55;100694.94;;;20.41;61.44
64835;BME280;51293;59.296;18.006;2022-08-21T10:58:37;100708.16;;;20.39;60.90
64835;BME280;51293;59.296;18.006;2022-08-21T11:01:16;100704.81;;;20.24;61.25
64835;BME280;51293;59.296;18.006;2022-08-21T11:03:50;100702.00;;;20.29;61.29
64835;BME280;51293;59.296;18.006;2022-08-21T11:06:25;100693.53;;;20.01;61.24
64835;BME280;51293;59.296;18.006;2022-08-21T11:08:57;100703.03;;;19.90;61.54
64835;BME280;51293;59.296;18.006;2022-08-21T11:11:36;100702.16;;;19.95;61.50
64835;BME280;51293;59.296;18.006;2022-08-21T11:16:37;100696.03;;;20.22;61.20
64835;BME280;51293;59.296;18.006;2022-08-21T11:19:18;100696.94;;;20.36;61.47
64835;BME280;51293;59.296;18.006;2022-08-21T11:21:54;100697.69;;;20.60;59.81
64835;BME280;51293;59.296;18.006;2022-08-21T11:27:44;100696.50;;;20.66;59.44
64835;BME280;51293;59.296;18.006;2022-08-21T11:30:11;100687.88;;;20.73;59.39
64835;BME280;51293;59.296;18.006;2022-08-21T11:32:57;100696.50;;;20.85;59.14
64835;BME280;51293;59.296;18.006;2022-08-21T11:35:35;100703.50;;;20.78;59.14
64835;BME280;51293;59.296;18.006;2022-08-21T11:43:17;100708.13;;;21.15;55.22
64835;BME280;51293;59.296;18.006;2022-08-21T11:45:50;100710.06;;;21.14;54.49
64835;BME280;51293;59.296;18.006;2022-08-21T11:50:43;100711.06;;;21.18;54.59
64835;BME280;51293;59.296;18.006;2022-08-21T11:53:28;100712.06;;;21.09;53.71
64835;BME280;51293;59.296;18.006;2022-08-21T11:56:11;100714.81;;;21.27;53.34
64835;BME280;51293;59.296;18.006;2022-08-21T11:58:41;100711.59;;;21.53;53.79
64835;BME280;51293;59.296;18.006;2022-08-21T12:01:15;100719.47;;;21.73;53.69
64835;BME280;51293;59.296;18.006;2022-08-21T12:03:54;100708.03;;;21.80;52.39
64835;BME280;51293;59.296;18.006;2022-08-21T12:06:32;100705.56;;;22.06;52.34
64835;BME280;51293;59.296;18.006;2022-08-21T12:09:27;100706.34;;;22.48;51.05
64835;BME280;51293;59.296;18.006;2022-08-21T12:12:31;100708.19;;;22.52;49.07
64835;BME280;51293;59.296;18.006;2022-08-21T12:15:24;100698.50;;;22.77;48.64
64835;BME280;51293;59.296;18.006;2022-08-21T12:17:56;100700.28;;;23.18;48.50
64835;BME280;51293;59.296;18.006;2022-08-21T12:20:37;100693.88;;;23.40;47.08
64835;BME280;51293;59.296;18.006;2022-08-21T12:25:43;100687.47;;;23.31;45.66
64835;BME280;51293;59.296;18.006;2022-08-21T12:28:22;100682.19;;;23.43;43.84
64835;BME280;51293;59.296;18.006;2022-08-21T12:30:48;100685.16;;;23.55;44.54
64835;BME280;51293;59.296;18.006;2022-08-21T12:33:36;100704.09;;;23.62;44.45
64835;BME280;51293;59.296;18.006;2022-08-21T12:36:23;100702.91;;;23.85;44.52
64835;BME280;51293;59.296;18.006;2022-08-21T12:39:03;100699.44;;;23.79;42.85
64835;BME280;51293;59.296;18.006;2022-08-21T12:41:54;100699.78;;;23.78;43.28
64835;BME280;51293;59.296;18.006;2022-08-21T12:44:26;100692.19;;;24.01;42.84
64835;BME280;51293;59.296;18.006;2022-08-21T12:46:59;100698.63;;;24.36;41.76
64835;BME280;51293;59.296;18.006;2022-08-21T12:49:35;100694.06;;;24.49;39.94
64835;BME280;51293;59.296;18.006;2022-08-21T12:52:09;100693.59;;;24.38;37.85
64835;BME280;51293;59.296;18.006;2022-08-21T12:54:43;100691.00;;;24.76;38.26
64835;BME280;51293;59.296;18.006;2022-08-21T12:57:19;100696.19;;;24.95;38.30
64835;BME280;51293;59.296;18.006;2022-08-21T12:59:45;100704.84;;;25.11;37.87
64835;BME280;51293;59.296;18.006;2022-08-21T13:02:18;100698.00;;;25.08;36.16
64835;BME280;51293;59.296;18.006;2022-08-21T13:04:46;100691.31;;;25.56;34.88
64835;BME280;51293;59.296;18.006;2022-08-21T13:07:19;100688.09;;;25.45;35.71
64835;BME280;51293;59.296;18.006;2022-08-21T13:09:51;100695.09;;;25.52;35.60
64835;BME280;51293;59.296;18.006;2022-08-21T13:12:18;100693.31;;;25.47;35.78
64835;BME280;51293;59.296;18.006;2022-08-21T13:14:45;100689.06;;;25.58;35.20
64835;BME280;51293;59.296;18.006;2022-08-21T13:17:19;100681.84;;;25.66;35.35
64835;BME280;51293;59.296;18.006;2022-08-21T13:19:59;100684.22;;;25.85;34.70
64835;BME280;51293;59.296;18.006;2022-08-21T13:22:26;100679.19;;;25.78;35.35
64835;BME280;51293;59.296;18.006;2022-08-21T13:24:51;100682.91;;;25.91;34.17
64835;BME280;51293;59.296;18.006;2022-08-21T13:27:24;100676.91;;;26.10;34.93
64835;BME280;51293;59.296;18.006;2022-08-21T13:32:30;100682.56;;;25.92;34.38
64835;BME280;51293;59.296;18.006;2022-08-21T13:34:56;100674.13;;;26.10;33.38
64835;BME280;51293;59.296;18.006;2022-08-21T13:37:23;100675.94;;;26.05;33.46
64835;BME280;51293;59.296;18.006;2022-08-21T13:39:51;100669.63;;;26.47;33.17
64835;BME280;51293;59.296;18.006;2022-08-21T13:42:17;100677.56;;;27.11;32.75
64835;BME280;51293;59.296;18.006;2022-08-21T13:44:46;100676.72;;;27.56;33.84
64835;BME280;51293;59.296;18.006;2022-08-21T13:47:15;100674.56;;;27.86;32.75
64835;BME280;51293;59.296;18.006;2022-08-21T13:49:44;100676.31;;;27.90;30.53
64835;BME280;51293;59.296;18.006;2022-08-21T13:52:25;100670.13;;;27.60;30.61
64835;BME280;51293;59.296;18.006;2022-08-21T13:55:08;100669.56;;;27.79;31.87